sensor_id;sensor_type;location;lat;lon;timestamp;temperature;humidity
4584;DHT22;2304;47.606;12.186;2023-02-28T00:00:36;1.70;58.80
4584;DHT22;2304;47.606;12.186;2023-02-28T00:05:40;1.70;58.80
4584;DHT22;2304;47.606;12.186;2023-02-28T00:10:42;1.70;59.00
4584;DHT22;2304;47.606;12.186;2023-02-28T00:15:44;1.70;58.80
4584;DHT22;2304;47.606;12.186;2023-02-28T00:20:48;1.60;58.80
4584;DHT22;2304;47.606;12.186;2023-02-28T00:25:50;1.60;59.00
4584;DHT22;2304;47.606;12.186;2023-02-28T00:30:52;1.60;59.00
4584;DHT22;2304;47.606;12.186;2023-02-28T00:36:03;1.60;59.00
4584;DHT22;2304;47.606;12.186;2023-02-28T00:41:05;1.60;59.00
4584;DHT22;2304;47.606;12.186;2023-02-28T00:46:08;1.60;59.00
4584;DHT22;2304;47.606;12.186;2023-02-28T00:51:11;1.60;59.00
4584;DHT22;2304;47.606;12.186;2023-02-28T00:56:12;1.60;59.00
4584;DHT22;2304;47.606;12.186;2023-02-28T01:01:14;1.50;58.70
4584;DHT22;2304;47.606;12.186;2023-02-28T01:06:17;1.50;58.80
4584;DHT22;2304;47.606;12.186;2023-02-28T01:11:19;1.60;58.70
4584;DHT22;2304;47.606;12.186;2023-02-28T01:16:21;1.60;58.60
4584;DHT22;2304;47.606;12.186;2023-02-28T01:21:24;1.50;58.70
4584;DHT22;2304;47.606;12.186;2023-02-28T01:26:26;1.40;58.70
4584;DHT22;2304;47.606;12.186;2023-02-28T01:31:28;1.40;58.90
4584;DHT22;2304;47.606;12.186;2023-02-28T01:36:31;1.40;59.10
4584;DHT22;2304;47.606;12.186;2023-02-28T01:41:34;1.40;59.30
4584;DHT22;2304;47.606;12.186;2023-02-28T01:46:36;1.50;59.30
4584;DHT22;2304;47.606;12.186;2023-02-28T01:51:42;1.40;59.30
4584;DHT22;2304;47.606;12.186;2023-02-28T01:56:49;1.40;59.20
4584;DHT22;2304;47.606;12.186;2023-02-28T02:01:53;1.30;59.50
4584;DHT22;2304;47.606;12.186;2023-02-28T02:06:57;1.30;60.60
4584;DHT22;2304;47.606;12.186;2023-02-28T02:12:08;1.40;59.90
4584;DHT22;2304;47.606;12.186;2023-02-28T02:17:22;1.30;59.50
4584;DHT22;2304;47.606;12.186;2023-02-28T02:22:46;1.40;59.30
4584;DHT22;2304;47.606;12.186;2023-02-28T02:33:34;1.40;58.90
4584;DHT22;2304;47.606;12.186;2023-02-28T02:38:46;1.20;59.30
4584;DHT22;2304;47.606;12.186;2023-02-28T02:43:52;1.20;59.10
4584;DHT22;2304;47.606;12.186;2023-02-28T02:48:56;1.20;59.10
4584;DHT22;2304;47.606;12.186;2023-02-28T02:54:03;1.20;60.00
4584;DHT22;2304;47.606;12.186;2023-02-28T02:59:09;0.90;59.50
4584;DHT22;2304;47.606;12.186;2023-02-28T03:04:16;0.90;60.00
4584;DHT22;2304;47.606;12.186;2023-02-28T03:09:19;1.00;59.70
4584;DHT22;2304;47.606;12.186;2023-02-28T03:14:40;0.90;59.60
4584;DHT22;2304;47.606;12.186;2023-02-28T03:19:53;0.90;59.60
4584;DHT22;2304;47.606;12.186;2023-02-28T03:25:02;0.90;59.80
4584;DHT22;2304;47.606;12.186;2023-02-28T03:30:10;0.80;59.90
4584;DHT22;2304;47.606;12.186;2023-02-28T03:35:19;0.80;60.40
4584;DHT22;2304;47.606;12.186;2023-02-28T03:40:27;0.80;59.50
4584;DHT22;2304;47.606;12.186;2023-02-28T03:45:33;0.80;59.60
4584;DHT22;2304;47.606;12.186;2023-02-28T03:50:39;0.70;59.70
4584;DHT22;2304;47.606;12.186;2023-02-28T03:55:45;0.70;60.00
4584;DHT22;2304;47.606;12.186;2023-02-28T04:00:50;0.60;59.60
4584;DHT22;2304;47.606;12.186;2023-02-28T04:05:55;0.60;59.70
4584;DHT22;2304;47.606;12.186;2023-02-28T04:11:03;0.60;59.80
4584;DHT22;2304;47.606;12.186;2023-02-28T04:16:07;0.60;59.80
4584;DHT22;2304;47.606;12.186;2023-02-28T04:21:12;0.70;59.70
4584;DHT22;2304;47.606;12.186;2023-02-28T04:26:16;0.70;59.60
4584;DHT22;2304;47.606;12.186;2023-02-28T04:31:17;0.70;59.20
4584;DHT22;2304;47.606;12.186;2023-02-28T04:36:19;0.60;59.40
4584;DHT22;2304;47.606;12.186;2023-02-28T04:41:24;0.50;60.10
4584;DHT22;2304;47.606;12.186;2023-02-28T04:46:26;0.30;60.30
4584;DHT22;2304;47.606;12.186;2023-02-28T04:51:28;0.30;60.50
4584;DHT22;2304;47.606;12.186;2023-02-28T04:56:31;0.20;60.40
4584;DHT22;2304;47.606;12.186;2023-02-28T05:01:34;0.20;60.30
4584;DHT22;2304;47.606;12.186;2023-02-28T05:06:36;0.20;60.20
4584;DHT22;2304;47.606;12.186;2023-02-28T05:11:40;0.20;60.20
4584;DHT22;2304;47.606;12.186;2023-02-28T05:16:42;0.20;60.10
4584;DHT22;2304;47.606;12.186;2023-02-28T05:21:50;0.20;60.10
4584;DHT22;2304;47.606;12.186;2023-02-28T05:26:54;0.10;60.40
4584;DHT22;2304;47.606;12.186;2023-02-28T05:31:56;0.00;60.40
4584;DHT22;2304;47.606;12.186;2023-02-28T05:36:58;0.00;60.20
4584;DHT22;2304;47.606;12.186;2023-02-28T05:42:01;0.10;60.30
4584;DHT22;2304;47.606;12.186;2023-02-28T05:47:03;0.00;60.60
4584;DHT22;2304;47.606;12.186;2023-02-28T05:52:05;0.00;60.50
4584;DHT22;2304;47.606;12.186;2023-02-28T05:57:08;0.10;60.20
4584;DHT22;2304;47.606;12.186;2023-02-28T06:02:12;0.10;60.00
4584;DHT22;2304;47.606;12.186;2023-02-28T06:07:14;0.00;59.70
4584;DHT22;2304;47.606;12.186;2023-02-28T06:12:19;0.00;59.90
4584;DHT22;2304;47.606;12.186;2023-02-28T06:17:21;-0.10;60.10
4584;DHT22;2304;47.606;12.186;2023-02-28T06:22:22;-0.30;60.20
4584;DHT22;2304;47.606;12.186;2023-02-28T06:27:26;-0.20;60.10
4584;DHT22;2304;47.606;12.186;2023-02-28T06:32:27;-0.20;60.00
4584;DHT22;2304;47.606;12.186;2023-02-28T06:37:30;-0.20;60.10
4584;DHT22;2304;47.606;12.186;2023-02-28T06:42:34;-0.20;60.20
4584;DHT22;2304;47.606;12.186;2023-02-28T06:47:36;-0.20;59.90
4584;DHT22;2304;47.606;12.186;2023-02-28T06:52:38;-0.20;59.60
4584;DHT22;2304;47.606;12.186;2023-02-28T06:57:41;-0.20;59.80
4584;DHT22;2304;47.606;12.186;2023-02-28T07:02:43;-0.30;60.30
4584;DHT22;2304;47.606;12.186;2023-02-28T07:07:45;-0.30;60.60
4584;DHT22;2304;47.606;12.186;2023-02-28T07:12:48;-0.30;60.30
4584;DHT22;2304;47.606;12.186;2023-02-28T07:17:53;-0.30;60.00
4584;DHT22;2304;47.606;12.186;2023-02-28T07:22:55;-0.30;60.00
4584;DHT22;2304;47.606;12.186;2023-02-28T07:27:58;-0.30;59.80
4584;DHT22;2304;47.606;12.186;2023-02-28T07:33:00;-0.20;61.60
4584;DHT22;2304;47.606;12.186;2023-02-28T07:38:02;-0.10;61.10
4584;DHT22;2304;47.606;12.186;2023-02-28T07:43:05;0.10;60.40
4584;DHT22;2304;47.606;12.186;2023-02-28T07:48:07;0.10;60.00
4584;DHT22;2304;47.606;12.186;2023-02-28T07:53:10;0.20;59.40
4584;DHT22;2304;47.606;12.186;2023-02-28T07:58:13;0.40;59.90
4584;DHT22;2304;47.606;12.186;2023-02-28T08:03:15;0.70;60.30
4584;DHT22;2304;47.606;12.186;2023-02-28T08:08:17;0.90;59.70
4584;DHT22;2304;47.606;12.186;2023-02-28T08:13:21;1.30;59.50
4584;DHT22;2304;47.606;12.186;2023-02-28T08:18:23;1.60;57.70
4584;DHT22;2304;47.606;12.186;2023-02-28T08:23:25;1.80;58.20
4584;DHT22;2304;47.606;12.186;2023-02-28T08:28:29;2.10;57.90
4584;DHT22;2304;47.606;12.186;2023-02-28T08:33:31;2.30;57.70
4584;DHT22;2304;47.606;12.186;2023-02-28T08:38:33;2.60;57.40
4584;DHT22;2304;47.606;12.186;2023-02-28T08:43:37;2.60;56.20
4584;DHT22;2304;47.606;12.186;2023-02-28T08:48:39;2.60;55.70
4584;DHT22;2304;47.606;12.186;2023-02-28T08:53:41;2.60;55.70
4584;DHT22;2304;47.606;12.186;2023-02-28T08:58:46;2.70;55.60
4584;DHT22;2304;47.606;12.186;2023-02-28T09:03:49;3.00;56.00
4584;DHT22;2304;47.606;12.186;2023-02-28T09:08:51;3.30;56.00
4584;DHT22;2304;47.606;12.186;2023-02-28T09:13:55;3.50;55.20
4584;DHT22;2304;47.606;12.186;2023-02-28T09:18:57;3.80;55.00
4584;DHT22;2304;47.606;12.186;2023-02-28T09:23:59;3.90;53.80
4584;DHT22;2304;47.606;12.186;2023-02-28T09:29:02;4.10;54.80
4584;DHT22;2304;47.606;12.186;2023-02-28T09:34:04;4.30;54.60
4584;DHT22;2304;47.606;12.186;2023-02-28T09:39:07;4.50;54.10
4584;DHT22;2304;47.606;12.186;2023-02-28T09:44:15;4.90;52.90
4584;DHT22;2304;47.606;12.186;2023-02-28T09:49:23;5.10;52.40
4584;DHT22;2304;47.606;12.186;2023-02-28T09:54:28;5.40;52.20
4584;DHT22;2304;47.606;12.186;2023-02-28T09:59:39;5.70;52.40
4584;DHT22;2304;47.606;12.186;2023-02-28T10:04:47;6.10;51.10
4584;DHT22;2304;47.606;12.186;2023-02-28T10:09:57;6.60;50.40
4584;DHT22;2304;47.606;12.186;2023-02-28T10:15:01;6.50;48.60
4584;DHT22;2304;47.606;12.186;2023-02-28T10:20:09;6.80;48.70
4584;DHT22;2304;47.606;12.186;2023-02-28T10:25:18;7.00;48.30
4584;DHT22;2304;47.606;12.186;2023-02-28T10:30:21;7.10;48.20
4584;DHT22;2304;47.606;12.186;2023-02-28T10:35:24;7.20;47.40
4584;DHT22;2304;47.606;12.186;2023-02-28T10:40:32;7.20;46.90
4584;DHT22;2304;47.606;12.186;2023-02-28T10:45:35;7.20;47.00
4584;DHT22;2304;47.606;12.186;2023-02-28T10:50:42;7.40;47.00
4584;DHT22;2304;47.606;12.186;2023-02-28T10:55:45;7.70;47.10
4584;DHT22;2304;47.606;12.186;2023-02-28T11:00:59;7.90;47.10
4584;DHT22;2304;47.606;12.186;2023-02-28T11:06:06;7.80;45.70
4584;DHT22;2304;47.606;12.186;2023-02-28T11:11:08;7.90;45.80
4584;DHT22;2304;47.606;12.186;2023-02-28T11:16:13;8.10;46.50
4584;DHT22;2304;47.606;12.186;2023-02-28T11:21:20;8.20;46.00
4584;DHT22;2304;47.606;12.186;2023-02-28T11:26:36;8.00;44.70
4584;DHT22;2304;47.606;12.186;2023-02-28T11:31:40;8.20;45.60
4584;DHT22;2304;47.606;12.186;2023-02-28T11:36:41;8.40;45.60
4584;DHT22;2304;47.606;12.186;2023-02-28T11:42:04;8.60;45.00
4584;DHT22;2304;47.606;12.186;2023-02-28T11:47:15;8.80;45.20
4584;DHT22;2304;47.606;12.186;2023-02-28T11:52:24;9.00;45.80
4584;DHT22;2304;47.606;12.186;2023-02-28T11:57:38;9.10;44.70
4584;DHT22;2304;47.606;12.186;2023-02-28T12:02:58;9.00;44.50
4584;DHT22;2304;47.606;12.186;2023-02-28T12:08:13;8.90;44.40
4584;DHT22;2304;47.606;12.186;2023-02-28T12:13:21;8.80;44.30
4584;DHT22;2304;47.606;12.186;2023-02-28T12:18:51;8.90;44.30
4584;DHT22;2304;47.606;12.186;2023-02-28T12:24:05;8.90;44.40
4584;DHT22;2304;47.606;12.186;2023-02-28T12:29:16;8.90;44.50
4584;DHT22;2304;47.606;12.186;2023-02-28T12:34:25;8.90;44.60
4584;DHT22;2304;47.606;12.186;2023-02-28T12:39:32;9.00;44.60
4584;DHT22;2304;47.606;12.186;2023-02-28T12:44:40;9.00;45.30
4584;DHT22;2304;47.606;12.186;2023-02-28T12:49:50;9.10;46.00
4584;DHT22;2304;47.606;12.186;2023-02-28T12:54:56;8.70;44.90
4584;DHT22;2304;47.606;12.186;2023-02-28T13:00:10;8.50;46.20
4584;DHT22;2304;47.606;12.186;2023-02-28T13:05:37;8.90;45.90
4584;DHT22;2304;47.606;12.186;2023-02-28T13:10:46;8.80;45.10
4584;DHT22;2304;47.606;12.186;2023-02-28T13:16:02;8.80;45.40
4584;DHT22;2304;47.606;12.186;2023-02-28T13:21:06;8.60;45.40
4584;DHT22;2304;47.606;12.186;2023-02-28T13:26:08;8.60;46.10
4584;DHT22;2304;47.606;12.186;2023-02-28T13:31:13;8.70;45.80
4584;DHT22;2304;47.606;12.186;2023-02-28T13:36:31;8.60;45.70
4584;DHT22;2304;47.606;12.186;2023-02-28T13:41:47;8.30;46.10
4584;DHT22;2304;47.606;12.186;2023-02-28T13:47:23;8.10;46.60
4584;DHT22;2304;47.606;12.186;2023-02-28T13:52:27;7.80;46.60
4584;DHT22;2304;47.606;12.186;2023-02-28T13:57:39;7.80;47.60
4584;DHT22;2304;47.606;12.186;2023-02-28T14:03:06;7.70;47.70
4584;DHT22;2304;47.606;12.186;2023-02-28T14:08:16;7.70;47.80
4584;DHT22;2304;47.606;12.186;2023-02-28T14:13:40;7.80;47.90
4584;DHT22;2304;47.606;12.186;2023-02-28T14:18:50;7.50;47.80
4584;DHT22;2304;47.606;12.186;2023-02-28T14:24:32;7.80;48.50
4584;DHT22;2304;47.606;12.186;2023-02-28T14:29:55;7.50;48.20
4584;DHT22;2304;47.606;12.186;2023-02-28T14:35:09;7.40;48.30
4584;DHT22;2304;47.606;12.186;2023-02-28T14:40:19;7.50;48.40
4584;DHT22;2304;47.606;12.186;2023-02-28T14:45:22;7.20;48.30
4584;DHT22;2304;47.606;12.186;2023-02-28T14:50:28;7.10;49.00
4584;DHT22;2304;47.606;12.186;2023-02-28T14:55:34;7.00;49.30
4584;DHT22;2304;47.606;12.186;2023-02-28T15:00:40;6.80;49.40
4584;DHT22;2304;47.606;12.186;2023-02-28T15:05:55;6.80;49.40
4584;DHT22;2304;47.606;12.186;2023-02-28T15:11:00;6.80;49.60
4584;DHT22;2304;47.606;12.186;2023-02-28T15:16:05;6.50;49.90
4584;DHT22;2304;47.606;12.186;2023-02-28T15:21:12;6.30;50.10
4584;DHT22;2304;47.606;12.186;2023-02-28T15:26:17;6.10;50.70
4584;DHT22;2304;47.606;12.186;2023-02-28T15:31:23;5.70;51.00
4584;DHT22;2304;47.606;12.186;2023-02-28T15:36:29;5.50;51.50
4584;DHT22;2304;47.606;12.186;2023-02-28T15:41:37;5.50;52.20
4584;DHT22;2304;47.606;12.186;2023-02-28T15:46:40;5.60;52.30
4584;DHT22;2304;47.606;12.186;2023-02-28T15:51:43;5.50;52.30
4584;DHT22;2304;47.606;12.186;2023-02-28T15:56:50;5.30;52.40
4584;DHT22;2304;47.606;12.186;2023-02-28T16:02:12;5.20;52.80
4584;DHT22;2304;47.606;12.186;2023-02-28T16:07:14;5.10;53.00
4584;DHT22;2304;47.606;12.186;2023-02-28T16:12:17;5.00;53.00
4584;DHT22;2304;47.606;12.186;2023-02-28T16:17:22;4.90;53.70
4584;DHT22;2304;47.606;12.186;2023-02-28T16:22:24;4.80;53.80
4584;DHT22;2304;47.606;12.186;2023-02-28T16:27:35;4.70;53.90
4584;DHT22;2304;47.606;12.186;2023-02-28T16:32:37;4.60;54.30
4584;DHT22;2304;47.606;12.186;2023-02-28T16:37:39;4.50;54.70
4584;DHT22;2304;47.606;12.186;2023-02-28T16:42:43;4.50;55.00
4584;DHT22;2304;47.606;12.186;2023-02-28T16:47:46;4.40;55.40
4584;DHT22;2304;47.606;12.186;2023-02-28T16:52:49;4.30;55.50
4584;DHT22;2304;47.606;12.186;2023-02-28T16:57:55;4.30;55.50
4584;DHT22;2304;47.606;12.186;2023-02-28T17:02:57;4.20;56.00
4584;DHT22;2304;47.606;12.186;2023-02-28T17:07:59;4.10;55.80
4584;DHT22;2304;47.606;12.186;2023-02-28T17:13:02;4.10;55.70
4584;DHT22;2304;47.606;12.186;2023-02-28T17:18:05;4.10;55.80
4584;DHT22;2304;47.606;12.186;2023-02-28T17:23:07;4.10;55.70
4584;DHT22;2304;47.606;12.186;2023-02-28T17:28:11;4.10;55.80
4584;DHT22;2304;47.606;12.186;2023-02-28T17:33:12;4.10;55.90
4584;DHT22;2304;47.606;12.186;2023-02-28T17:38:16;4.00;55.90
4584;DHT22;2304;47.606;12.186;2023-02-28T17:43:20;4.00;56.10
4584;DHT22;2304;47.606;12.186;2023-02-28T17:48:22;3.90;56.00
4584;DHT22;2304;47.606;12.186;2023-02-28T17:53:23;4.00;56.20
4584;DHT22;2304;47.606;12.186;2023-02-28T17:58:28;3.90;56.40
4584;DHT22;2304;47.606;12.186;2023-02-28T18:03:31;3.90;56.60
4584;DHT22;2304;47.606;12.186;2023-02-28T18:08:34;3.80;56.60
4584;DHT22;2304;47.606;12.186;2023-02-28T18:13:38;3.80;56.90
4584;DHT22;2304;47.606;12.186;2023-02-28T18:18:40;3.80;56.90
4584;DHT22;2304;47.606;12.186;2023-02-28T18:23:43;3.80;57.10
4584;DHT22;2304;47.606;12.186;2023-02-28T18:28:49;3.80;57.20
4584;DHT22;2304;47.606;12.186;2023-02-28T18:33:51;3.70;57.30
4584;DHT22;2304;47.606;12.186;2023-02-28T18:38:53;3.70;57.50
4584;DHT22;2304;47.606;12.186;2023-02-28T18:43:57;3.80;57.60
4584;DHT22;2304;47.606;12.186;2023-02-28T18:49:01;3.70;57.80
4584;DHT22;2304;47.606;12.186;2023-02-28T18:54:03;3.70;57.90
4584;DHT22;2304;47.606;12.186;2023-02-28T18:59:06;3.60;58.00
4584;DHT22;2304;47.606;12.186;2023-02-28T19:04:11;3.60;58.20
4584;DHT22;2304;47.606;12.186;2023-02-28T19:09:13;3.60;58.20
4584;DHT22;2304;47.606;12.186;2023-02-28T19:14:16;3.60;58.40
4584;DHT22;2304;47.606;12.186;2023-02-28T19:19:18;3.60;58.50
4584;DHT22;2304;47.606;12.186;2023-02-28T19:24:20;3.60;58.80
4584;DHT22;2304;47.606;12.186;2023-02-28T19:29:23;3.50;59.40
4584;DHT22;2304;47.606;12.186;2023-02-28T19:34:25;3.60;60.40
4584;DHT22;2304;47.606;12.186;2023-02-28T19:39:26;3.60;59.50
4584;DHT22;2304;47.606;12.186;2023-02-28T19:44:29;3.60;59.10
4584;DHT22;2304;47.606;12.186;2023-02-28T19:49:31;3.40;59.10
4584;DHT22;2304;47.606;12.186;2023-02-28T19:54:34;3.40;59.60
4584;DHT22;2304;47.606;12.186;2023-02-28T19:59:37;3.40;59.10
4584;DHT22;2304;47.606;12.186;2023-02-28T20:04:39;3.50;59.10
4584;DHT22;2304;47.606;12.186;2023-02-28T20:09:40;3.50;59.10
4584;DHT22;2304;47.606;12.186;2023-02-28T20:14:45;3.40;59.30
4584;DHT22;2304;47.606;12.186;2023-02-28T20:19:47;3.40;59.60
4584;DHT22;2304;47.606;12.186;2023-02-28T20:24:49;3.30;59.70
4584;DHT22;2304;47.606;12.186;2023-02-28T20:29:52;3.40;59.50
4584;DHT22;2304;47.606;12.186;2023-02-28T20:34:54;3.30;59.60
4584;DHT22;2304;47.606;12.186;2023-02-28T20:39:55;3.30;59.40
4584;DHT22;2304;47.606;12.186;2023-02-28T20:44:58;3.40;59.40
4584;DHT22;2304;47.606;12.186;2023-02-28T20:50:00;3.40;59.40
4584;DHT22;2304;47.606;12.186;2023-02-28T20:55:02;3.40;59.40
4584;DHT22;2304;47.606;12.186;2023-02-28T21:00:07;3.50;59.40
4584;DHT22;2304;47.606;12.186;2023-02-28T21:05:10;3.40;59.70
4584;DHT22;2304;47.606;12.186;2023-02-28T21:10:12;3.40;59.40
4584;DHT22;2304;47.606;12.186;2023-02-28T21:15:15;3.40;59.50
4584;DHT22;2304;47.606;12.186;2023-02-28T21:20:17;3.40;59.60
4584;DHT22;2304;47.606;12.186;2023-02-28T21:25:22;3.40;59.60
4584;DHT22;2304;47.606;12.186;2023-02-28T21:30:26;3.40;59.70
4584;DHT22;2304;47.606;12.186;2023-02-28T21:35:27;3.40;60.10
4584;DHT22;2304;47.606;12.186;2023-02-28T21:40:29;3.40;60.50
4584;DHT22;2304;47.606;12.186;2023-02-28T21:45:34;3.30;60.70
4584;DHT22;2304;47.606;12.186;2023-02-28T21:50:36;3.40;60.80
4584;DHT22;2304;47.606;12.186;2023-02-28T21:55:37;3.40;60.50
4584;DHT22;2304;47.606;12.186;2023-02-28T22:00:41;3.40;60.60
4584;DHT22;2304;47.606;12.186;2023-02-28T22:05:45;3.40;60.90
4584;DHT22;2304;47.606;12.186;2023-02-28T22:10:47;3.40;60.60
4584;DHT22;2304;47.606;12.186;2023-02-28T22:15:50;3.40;61.60
4584;DHT22;2304;47.606;12.186;2023-02-28T22:20:53;3.40;60.70
4584;DHT22;2304;47.606;12.186;2023-02-28T22:25:55;3.40;61.10
4584;DHT22;2304;47.606;12.186;2023-02-28T22:30:59;3.50;60.90
4584;DHT22;2304;47.606;12.186;2023-02-28T22:36:04;3.60;60.90
4584;DHT22;2304;47.606;12.186;2023-02-28T22:41:06;3.60;60.90
4584;DHT22;2304;47.606;12.186;2023-02-28T22:46:11;3.60;60.60
4584;DHT22;2304;47.606;12.186;2023-02-28T22:51:16;3.60;60.70
4584;DHT22;2304;47.606;12.186;2023-02-28T22:56:20;3.50;61.10
4584;DHT22;2304;47.606;12.186;2023-02-28T23:01:25;3.50;61.20
4584;DHT22;2304;47.606;12.186;2023-02-28T23:06:29;3.60;61.40
4584;DHT22;2304;47.606;12.186;2023-02-28T23:11:33;3.60;61.00
4584;DHT22;2304;47.606;12.186;2023-02-28T23:16:38;3.40;62.10
4584;DHT22;2304;47.606;12.186;2023-02-28T23:21:41;3.40;63.50
4584;DHT22;2304;47.606;12.186;2023-02-28T23:26:44;3.40;63.20
4584;DHT22;2304;47.606;12.186;2023-02-28T23:31:48;3.40;62.60
4584;DHT22;2304;47.606;12.186;2023-02-28T23:36:50;3.40;62.90
4584;DHT22;2304;47.606;12.186;2023-02-28T23:41:52;3.30;63.60
4584;DHT22;2304;47.606;12.186;2023-02-28T23:46:55;3.30;63.30
4584;DHT22;2304;47.606;12.186;2023-02-28T23:51:57;3.40;62.70
4584;DHT22;2304;47.606;12.186;2023-02-28T23:56:59;3.50;62.50
